Time;durP1;ratioP1;P1;durP2;ratioP2;P2;SDS_P1;SDS_P2;PMS_P1;PMS_P2;Temp;Humidity;BMP_temperature;BMP_pressure;BME280_temperature;BME280_humidity;BME280_pressure;Samples;Min_cycle;Max_cycle;Signal;HPM_P1;HPM_P2
2024/04/02 00:00:41;;;;;;;1.40;0.60;;;;;;;18.76;45.09;100113.72;4993295;28;20035;-67
2024/04/02 00:03:08;;;;;;;0.60;0.50;;;;;;;18.61;45.25;100097.50;4990875;28;20040;-67
2024/04/02 00:05:34;;;;;;;1.05;0.60;;;;;;;18.71;45.16;100118.56;4991719;28;20128;-68
2024/04/02 00:07:59;;;;;;;1.88;0.60;;;;;;;18.74;44.74;100118.28;4990855;28;20044;-67
2024/04/02 00:10:24;;;;;;;1.25;0.60;;;;;;;18.60;45.03;100101.97;4992591;28;20590;-68
2024/04/02 00:12:50;;;;;;;1.42;0.45;;;;;;;18.72;44.87;100121.06;4992655;28;20037;-67
2024/04/02 00:15:15;;;;;;;2.47;0.70;;;;;;;18.68;44.77;100120.53;4992504;28;20042;-67
2024/04/02 00:17:43;;;;;;;0.93;0.55;;;;;;;18.64;45.21;100116.56;4988589;28;20030;-68
2024/04/02 00:20:09;;;;;;;1.27;0.40;;;;;;;18.68;44.87;100119.72;4991477;28;20109;-67
2024/04/02 00:22:34;;;;;;;1.27;0.63;;;;;;;18.66;44.87;100122.50;4989471;28;20125;-70
2024/04/02 00:25:00;;;;;;;1.60;0.60;;;;;;;18.63;44.84;100119.34;4990776;28;20474;-67
2024/04/02 00:27:27;;;;;;;1.55;0.60;;;;;;;18.55;45.00;100111.28;4991951;28;20061;-67
2024/04/02 00:29:53;;;;;;;1.05;0.50;;;;;;;18.68;44.90;100132.91;4991538;28;20480;-66
2024/04/02 00:32:18;;;;;;;2.05;0.60;;;;;;;18.48;44.68;100114.53;4991392;28;20029;-68
2024/04/02 00:34:43;;;;;;;1.80;0.65;;;;;;;18.51;44.97;100123.13;4992688;28;20116;-72
2024/04/02 00:37:09;;;;;;;1.27;0.60;;;;;;;18.60;44.95;100133.63;4991093;28;20054;-67
2024/04/02 00:39:36;;;;;;;3.33;0.50;;;;;;;18.42;45.00;100095.78;4990255;28;20131;-71
2024/04/02 00:42:03;;;;;;;1.38;0.60;;;;;;;18.62;44.74;100141.41;4991260;28;20040;-69
2024/04/02 00:44:28;;;;;;;1.77;0.65;;;;;;;18.51;44.82;100118.66;4989996;28;20030;-72
2024/04/02 00:46:53;;;;;;;1.23;0.50;;;;;;;18.51;44.77;100116.03;4989694;28;20030;-67
2024/04/02 00:49:19;;;;;;;2.40;0.70;;;;;;;18.51;44.88;100120.50;4992853;28;20057;-71
2024/04/02 00:51:45;;;;;;;2.47;0.70;;;;;;;18.54;44.74;100136.84;4991593;28;20483;-68
2024/04/02 00:54:11;;;;;;;1.60;0.65;;;;;;;18.54;44.75;100128.13;4988376;28;20085;-67
2024/04/02 00:56:36;;;;;;;2.85;0.77;;;;;;;18.47;44.54;100122.59;4991848;28;20038;-70
2024/04/02 00:59:03;;;;;;;3.08;0.90;;;;;;;18.47;44.56;100136.59;4991774;28;20040;-70
2024/04/02 01:01:28;;;;;;;1.10;0.50;;;;;;;18.59;44.46;100152.25;4990167;28;20500;-69
2024/04/02 01:03:53;;;;;;;2.60;0.70;;;;;;;18.45;44.63;100140.34;4988654;28;20117;-72
2024/04/02 01:06:18;;;;;;;1.70;0.60;;;;;;;18.42;44.70;100141.50;4988882;28;20064;-68
2024/04/02 01:08:44;;;;;;;2.13;0.77;;;;;;;18.51;44.72;100152.97;4990108;28;20034;-70
2024/04/02 01:11:09;;;;;;;2.13;0.73;;;;;;;18.57;44.51;100167.41;4991046;28;20500;-72
2024/04/02 01:13:35;;;;;;;1.65;0.60;;;;;;;18.39;44.69;100135.63;4982443;28;20308;-69
2024/04/02 01:16:04;;;;;;;1.25;0.55;;;;;;;18.44;44.74;100151.91;4990048;28;20092;-67
2024/04/02 01:18:29;;;;;;;1.70;0.70;;;;;;;18.55;44.74;100171.97;4990697;28;20034;-67
2024/04/02 01:20:55;;;;;;;1.27;0.50;;;;;;;18.40;44.61;100147.88;4990932;28;20045;-69
2024/04/02 01:23:22;;;;;;;2.03;0.60;;;;;;;18.52;44.65;100170.47;4989201;28;20524;-71
2024/04/02 01:25:47;;;;;;;1.73;0.57;;;;;;;18.53;44.47;100173.94;4990285;28;20161;-67
2024/04/02 01:28:12;;;;;;;2.25;0.60;;;;;;;18.33;44.73;100147.63;4989068;28;20137;-71
2024/04/02 01:30:38;;;;;;;1.35;0.60;;;;;;;18.50;44.34;100180.34;4988840;28;20169;-67
2024/04/02 01:33:03;;;;;;;2.25;0.77;;;;;;;18.48;44.72;100177.00;4989691;28;20120;-67
2024/04/02 01:35:28;;;;;;;2.03;0.70;;;;;;;18.46;44.54;100174.50;4990509;28;20041;-67
2024/04/02 01:37:54;;;;;;;1.05;0.50;;;;;;;18.39;44.68;100169.94;4988870;28;20072;-67
2024/04/02 01:40:19;;;;;;;1.63;0.60;;;;;;;18.36;44.40;100163.16;4991369;28;20132;-67
2024/04/02 01:42:44;;;;;;;2.92;0.70;;;;;;;18.33;44.71;100155.53;4988544;28;20112;-68
2024/04/02 01:45:09;;;;;;;2.05;0.68;;;;;;;18.40;44.70;100172.44;4989441;28;20030;-67
2024/04/02 01:47:35;;;;;;;2.55;0.70;;;;;;;18.45;44.56;100180.78;4988566;28;20034;-66
2024/04/02 01:50:00;;;;;;;0.93;0.50;;;;;;;18.45;44.50;100177.28;4987672;28;20467;-66
2024/04/02 01:52:25;;;;;;;2.20;0.70;;;;;;;18.28;44.62;100152.50;4990756;28;20041;-67
2024/04/02 01:54:51;;;;;;;3.08;0.70;;;;;;;18.34;44.44;100165.13;4989787;28;20471;-66
2024/04/02 01:57:16;;;;;;;1.42;0.60;;;;;;;18.40;44.47;100172.44;4991369;28;20050;-67
2024/04/02 01:59:42;;;;;;;1.50;0.57;;;;;;;18.36;44.68;100162.31;4989188;28;20029;-70
2024/04/02 02:02:07;;;;;;;1.75;0.60;;;;;;;18.44;44.44;100189.66;4990354;28;20096;-67
2024/04/02 02:04:32;;;;;;;1.65;0.70;;;;;;;18.40;44.51;100176.88;4990432;28;20037;-68
2024/04/02 02:06:58;;;;;;;1.88;0.70;;;;;;;18.36;44.37;100171.06;4988970;28;20113;-69
2024/04/02 02:09:23;;;;;;;1.55;0.70;;;;;;;18.25;44.42;100160.69;4989793;28;20344;-67
2024/04/02 02:11:48;;;;;;;1.52;0.60;;;;;;;18.41;44.51;100186.47;4991305;28;20092;-70
2024/04/02 02:14:14;;;;;;;2.47;0.88;;;;;;;18.21;44.53;100159.28;4990214;28;20104;-68
2024/04/02 02:16:39;;;;;;;1.40;0.60;;;;;;;18.24;44.30;100161.66;4990023;28;20034;-71
2024/04/02 02:19:05;;;;;;;1.40;0.60;;;;;;;18.23;44.10;100162.63;4990743;28;20124;-70
2024/04/02 02:21:30;;;;;;;1.98;0.82;;;;;;;18.25;44.43;100174.69;4990677;28;20045;-68
2024/04/02 02:23:55;;;;;;;2.08;0.70;;;;;;;18.28;44.34;100184.97;4988286;28;20256;-68
2024/04/02 02:26:21;;;;;;;3.20;0.77;;;;;;;18.34;44.41;100188.00;4992455;28;20045;-68
2024/04/02 02:28:46;;;;;;;3.13;0.98;;;;;;;18.38;44.29;100208.69;4990278;28;20822;-68
2024/04/02 02:31:12;;;;;;;1.25;0.65;;;;;;;18.22;44.05;100187.34;4988818;28;20052;-72
2024/04/02 02:33:37;;;;;;;2.45;0.70;;;;;;;18.34;44.01;100209.09;4989429;28;20029;-67
2024/04/02 02:36:02;;;;;;;0.85;0.57;;;;;;;18.20;44.43;100184.84;4990877;28;20034;-69
2024/04/02 02:38:28;;;;;;;1.55;0.70;;;;;;;18.19;44.12;100191.09;4990123;28;20057;-70
2024/04/02 02:41:02;;;;;;;2.15;0.60;;;;;;;18.26;44.18;100205.38;4990850;28;20046;-68
2024/04/02 02:43:28;;;;;;;2.38;0.70;;;;;;;18.33;44.17;100216.19;4990870;28;20041;-69
2024/04/02 02:45:54;;;;;;;1.35;0.73;;;;;;;18.34;44.14;100224.94;4989560;28;20037;-69
2024/04/02 02:48:19;;;;;;;2.13;0.70;;;;;;;18.22;44.41;100205.81;4990368;28;20085;-73
2024/04/02 02:50:45;;;;;;;1.67;0.73;;;;;;;18.19;43.97;100198.19;4990144;28;20125;-67
2024/04/02 02:53:10;;;;;;;2.13;0.70;;;;;;;18.16;44.27;100198.44;4989997;28;20034;-71
2024/04/02 02:55:35;;;;;;;2.13;0.80;;;;;;;18.33;44.22;100236.47;4989861;28;20030;-67
2024/04/02 02:58:01;;;;;;;2.17;0.80;;;;;;;18.30;44.13;100227.84;4990252;28;20067;-69
2024/04/02 03:00:26;;;;;;;1.77;0.77;;;;;;;18.21;44.03;100215.50;4989211;28;20052;-67
2024/04/02 03:02:51;;;;;;;2.30;0.70;;;;;;;18.16;44.33;100201.09;4989080;28;20038;-67
2024/04/02 03:05:16;;;;;;;1.95;0.50;;;;;;;18.31;44.11;100228.72;4989470;28;20042;-66
2024/04/02 03:07:42;;;;;;;2.25;0.70;;;;;;;18.26;44.45;100226.50;4990339;28;20022;-68
2024/04/02 03:10:07;;;;;;;1.65;0.70;;;;;;;18.25;44.19;100216.91;4990892;28;20041;-66
2024/04/02 03:12:32;;;;;;;1.58;0.80;;;;;;;18.15;44.22;100209.97;4990207;28;20882;-67
2024/04/02 03:14:58;;;;;;;3.13;0.85;;;;;;;18.22;44.36;100213.72;4990377;28;20096;-67
2024/04/02 03:17:23;;;;;;;1.50;0.75;;;;;;;18.26;44.41;100225.63;4990573;28;20089;-67
2024/04/02 03:19:48;;;;;;;1.35;0.60;;;;;;;18.18;44.09;100215.78;4989768;28;20034;-66
2024/04/02 03:22:14;;;;;;;2.10;0.70;;;;;;;18.18;44.20;100218.41;4990593;28;20061;-66
2024/04/02 03:24:39;;;;;;;2.53;0.70;;;;;;;18.18;44.16;100223.69;4990757;28;20515;-67
2024/04/02 03:27:06;;;;;;;2.63;0.80;;;;;;;18.23;44.11;100242.59;4991491;28;20034;-66
2024/04/02 03:29:32;;;;;;;1.85;0.80;;;;;;;18.28;44.26;100250.91;4994024;28;20049;-70
2024/04/02 03:31:57;;;;;;;1.73;0.70;;;;;;;18.28;44.15;100247.44;4992745;28;20462;-70
2024/04/02 03:34:25;;;;;;;2.67;0.85;;;;;;;18.16;44.19;100227.47;4993122;28;20041;-71
2024/04/02 03:36:50;;;;;;;1.13;0.60;;;;;;;18.21;44.07;100233.97;4993175;28;20042;-73
2024/04/02 03:39:15;;;;;;;2.78;0.80;;;;;;;18.09;44.25;100214.81;4993790;28;20492;-66
2024/04/02 03:41:41;;;;;;;2.30;0.90;;;;;;;18.03;44.18;100218.03;4993306;28;20031;-70
2024/04/02 03:44:07;;;;;;;1.95;0.70;;;;;;;18.08;44.17;100228.16;4994045;28;20041;-70
2024/04/02 03:46:32;;;;;;;1.80;0.60;;;;;;;18.03;43.90;100217.19;4994024;28;20475;-72
2024/04/02 03:48:57;;;;;;;2.63;0.73;;;;;;;18.14;44.12;100240.78;4993544;28;20093;-69
2024/04/02 03:51:23;;;;;;;1.25;0.52;;;;;;;18.04;44.05;100224.97;4993475;28;20368;-71
2024/04/02 03:53:48;;;;;;;1.63;0.68;;;;;;;18.11;44.31;100239.25;4992708;28;20041;-68
2024/04/02 03:56:13;;;;;;;2.30;0.80;;;;;;;18.07;44.13;100245.78;4993862;28;20033;-71
2024/04/02 03:58:38;;;;;;;1.92;0.80;;;;;;;18.06;43.90;100240.66;4993103;28;20104;-68
2024/04/02 04:01:05;;;;;;;2.67;0.90;;;;;;;18.19;44.00;100272.03;4993064;28;20488;-70
2024/04/02 04:03:31;;;;;;;2.90;0.77;;;;;;;18.20;43.97;100271.03;4992785;28;20664;-68
2024/04/02 04:06:01;;;;;;;2.17;0.60;;;;;;;17.98;44.03;100240.53;4993190;28;20034;-68
2024/04/02 04:08:27;;;;;;;1.75;0.70;;;;;;;18.15;44.09;100276.75;4993420;28;20038;-68
2024/04/02 04:10:52;;;;;;;1.90;0.70;;;;;;;18.18;44.05;100284.34;4993135;28;20092;-67
2024/04/02 04:13:19;;;;;;;2.60;0.70;;;;;;;18.05;43.97;100271.44;4992590;28;20038;-69
2024/04/02 04:16:00;;;;;;;1.70;0.60;;;;;;;18.09;43.87;100275.47;4983222;28;20034;-68
2024/04/02 04:18:26;;;;;;;3.05;1.08;;;;;;;18.15;43.88;100292.56;4993391;28;20121;-74
2024/04/02 04:20:51;;;;;;;2.08;0.57;;;;;;;18.19;44.15;100293.13;4993371;28;20038;-67
2024/04/02 04:23:17;;;;;;;3.17;0.70;;;;;;;18.17;44.01;100293.25;4993069;28;20026;-72
2024/04/02 04:25:42;;;;;;;2.58;0.70;;;;;;;18.16;43.96;100298.66;4993316;28;20267;-68
2024/04/02 04:28:07;;;;;;;1.38;0.50;;;;;;;18.12;44.59;100295.47;4992481;28;20035;-72
2024/04/02 04:30:33;;;;;;;2.53;0.90;;;;;;;18.13;43.94;100305.91;4993241;28;20168;-67
2024/04/02 04:32:58;;;;;;;1.48;0.60;;;;;;;18.09;43.96;100291.31;4991646;28;20029;-68
2024/04/02 04:35:24;;;;;;;1.60;0.70;;;;;;;18.14;44.21;100304.06;4993084;28;20085;-66
2024/04/02 04:37:49;;;;;;;4.55;0.70;;;;;;;17.97;44.08;100278.38;4991641;28;20539;-67
2024/04/02 04:40:14;;;;;;;2.13;0.70;;;;;;;18.10;44.28;100308.81;4993018;28;20043;-66
2024/04/02 04:42:40;;;;;;;2.13;0.85;;;;;;;18.08;44.10;100299.34;4992173;28;20030;-67
2024/04/02 04:45:05;;;;;;;2.72;0.80;;;;;;;18.00;44.29;100297.41;4992891;28;20511;-66
2024/04/02 04:47:30;;;;;;;2.20;0.80;;;;;;;18.03;43.99;100304.22;4991910;28;20036;-67
2024/04/02 04:49:55;;;;;;;3.08;0.80;;;;;;;18.04;44.04;100297.94;4990335;28;20050;-66
2024/04/02 04:52:21;;;;;;;2.63;0.70;;;;;;;18.09;43.91;100314.22;4992184;28;20029;-66
2024/04/02 04:54:46;;;;;;;1.38;0.73;;;;;;;18.15;44.07;100323.38;4991341;28;20104;-67
2024/04/02 04:57:11;;;;;;;1.42;0.60;;;;;;;18.08;44.11;100316.00;4992400;28;20137;-68
2024/04/02 04:59:37;;;;;;;1.50;0.70;;;;;;;17.94;44.26;100297.94;4992945;28;20113;-70
2024/04/02 05:02:02;;;;;;;1.42;0.60;;;;;;;18.12;44.08;100327.13;4991287;28;20040;-68
2024/04/02 05:04:27;;;;;;;2.78;0.80;;;;;;;18.07;44.18;100314.34;4989726;28;20064;-71
2024/04/02 05:06:53;;;;;;;2.13;0.70;;;;;;;18.04;44.01;100321.69;4991605;28;20044;-67
2024/04/02 05:09:21;;;;;;;1.30;0.60;;;;;;;18.10;44.25;100329.91;4991085;28;20034;-69
2024/04/02 05:11:46;;;;;;;1.05;0.55;;;;;;;18.07;44.31;100330.16;4991922;28;20110;-69
2024/04/02 05:14:12;;;;;;;2.38;0.70;;;;;;;18.01;44.24;100328.06;4991634;28;20042;-72
2024/04/02 05:16:37;;;;;;;2.80;0.70;;;;;;;17.93;44.52;100302.38;4992525;28;20460;-67
2024/04/02 05:19:03;;;;;;;2.90;0.70;;;;;;;18.14;44.67;100343.63;4991687;28;20149;-67
2024/04/02 05:21:29;;;;;;;2.33;0.70;;;;;;;18.03;44.20;100323.50;4991899;28;20499;-71
2024/04/02 05:23:54;;;;;;;1.92;0.70;;;;;;;18.18;44.67;100349.47;5006445;28;20096;-68
2024/04/02 05:26:19;;;;;;;2.10;0.60;;;;;;;18.10;44.80;100329.03;4989980;28;20038;-69
2024/04/02 05:28:45;;;;;;;2.45;0.70;;;;;;;18.13;44.83;100334.91;4991749;28;20125;-68
2024/04/02 05:31:11;;;;;;;2.90;0.77;;;;;;;18.24;44.85;100351.56;4991661;28;20033;-68
2024/04/02 05:33:38;;;;;;;1.85;0.82;;;;;;;18.03;45.02;100312.94;4991671;28;20708;-71
2024/04/02 05:36:03;;;;;;;1.77;0.60;;;;;;;18.29;44.95;100362.53;4990353;28;20542;-67
2024/04/02 05:38:28;;;;;;;1.88;0.60;;;;;;;18.20;45.00;100343.09;4991210;28;20037;-67
2024/04/02 05:40:54;;;;;;;2.58;0.70;;;;;;;18.22;45.06;100337.69;4989646;28;20108;-67
2024/04/02 05:43:19;;;;;;;2.13;0.70;;;;;;;18.27;44.80;100346.00;4991089;28;20053;-66
2024/04/02 05:45:45;;;;;;;2.65;0.70;;;;;;;18.36;44.75;100365.44;4991402;28;20040;-71
2024/04/02 05:48:10;;;;;;;0.68;0.40;;;;;;;18.41;44.92;100363.25;4991018;28;20073;-68
2024/04/02 05:50:35;;;;;;;1.63;0.52;;;;;;;18.31;44.75;100350.88;4989950;28;20547;-68
2024/04/02 05:53:01;;;;;;;1.33;0.60;;;;;;;18.26;44.75;100345.19;4982152;28;20038;-68
2024/04/02 05:55:26;;;;;;;2.25;0.80;;;;;;;18.36;44.98;100358.38;4990445;28;20182;-67
2024/04/02 05:57:55;;;;;;;2.33;0.60;;;;;;;18.43;44.91;100377.94;4991179;28;20033;-67
2024/04/02 06:00:20;;;;;;;1.40;0.70;;;;;;;18.48;44.67;100386.31;4990341;28;20395;-67
2024/04/02 06:02:45;;;;;;;2.08;0.70;;;;;;;18.52;44.74;100393.91;4989926;28;20057;-67
2024/04/02 06:05:11;;;;;;;2.05;0.50;;;;;;;18.47;44.63;100389.91;4990804;28;20116;-68
2024/04/02 06:07:36;;;;;;;2.63;0.70;;;;;;;18.46;44.92;100390.03;4991060;28;20484;-67
2024/04/02 06:10:01;;;;;;;1.83;0.60;;;;;;;18.52;44.82;100400.03;4990254;28;20030;-69
2024/04/02 06:12:26;;;;;;;1.98;0.70;;;;;;;18.55;44.80;100402.41;4990524;28;20030;-68
2024/04/02 06:14:52;;;;;;;1.92;0.57;;;;;;;18.45;44.93;100388.38;4990765;28;20427;-68
2024/04/02 06:17:17;;;;;;;2.03;0.70;;;;;;;18.42;44.61;100389.50;4990880;28;20549;-69
2024/04/02 06:19:42;;;;;;;1.52;0.60;;;;;;;18.44;44.85;100397.28;4991248;28;20029;-68
2024/04/02 06:22:08;;;;;;;1.95;0.60;;;;;;;18.48;44.96;100402.13;4990474;28;20034;-73
2024/04/02 06:24:34;;;;;;;2.78;0.80;;;;;;;18.45;44.64;100394.50;4991033;28;20042;-68
2024/04/02 06:26:59;;;;;;;3.97;0.88;;;;;;;18.44;44.67;100390.19;4990870;28;20033;-69
2024/04/02 06:29:24;;;;;;;1.73;0.60;;;;;;;18.46;44.72;100392.69;4990014;28;20045;-68
2024/04/02 06:31:50;;;;;;;1.92;0.52;;;;;;;18.55;44.82;100406.84;4991454;28;20034;-68
2024/04/02 06:34:15;;;;;;;2.55;0.60;;;;;;;18.30;44.58;100380.03;4991042;28;20038;-67
2024/04/02 06:36:40;;;;;;;2.50;0.70;;;;;;;18.53;44.67;100404.34;4990688;28;20026;-67
2024/04/02 06:39:07;;;;;;;1.67;0.60;;;;;;;18.46;44.80;100398.78;4990478;28;20026;-68
2024/04/02 06:41:32;;;;;;;2.53;0.70;;;;;;;18.55;44.71;100418.25;4990722;28;20029;-73
2024/04/02 06:44:00;;;;;;;1.63;0.60;;;;;;;18.57;44.86;100411.00;4989106;28;20037;-73
2024/04/02 06:46:25;;;;;;;1.85;0.68;;;;;;;18.46;44.86;100396.13;4989864;28;20039;-69
2024/04/02 06:48:50;;;;;;;2.20;0.80;;;;;;;18.34;44.94;100380.56;4989773;28;20073;-69
2024/04/02 06:51:16;;;;;;;2.17;0.60;;;;;;;18.59;44.62;100424.06;4988233;28;20042;-68
2024/04/02 06:53:42;;;;;;;2.97;0.80;;;;;;;18.46;44.78;100401.41;4988865;28;20030;-71
2024/04/02 06:56:07;;;;;;;3.15;0.70;;;;;;;18.54;44.65;100413.09;4990872;28;20041;-68
2024/04/02 06:58:33;;;;;;;2.70;0.80;;;;;;;18.51;44.62;100408.09;4989890;28;20085;-68
2024/04/02 07:00:58;;;;;;;2.38;0.75;;;;;;;18.48;44.76;100401.28;4990273;28;20034;-71
2024/04/02 07:03:24;;;;;;;2.58;0.70;;;;;;;18.59;44.70;100424.91;4994239;28;20035;-68
2024/04/02 07:05:51;;;;;;;2.78;0.80;;;;;;;18.58;44.29;100431.16;4993359;28;20033;-69
2024/04/02 07:08:17;;;;;;;3.85;0.90;;;;;;;18.49;44.41;100416.16;4993604;28;20283;-70
2024/04/02 07:10:44;;;;;;;2.67;0.85;;;;;;;18.42;44.52;100407.97;4993262;28;20463;-72
2024/04/02 07:13:11;;;;;;;3.88;0.80;;;;;;;18.45;44.58;100410.31;4994351;28;20042;-72
2024/04/02 07:15:37;;;;;;;3.13;0.93;;;;;;;18.59;44.91;100434.63;4993411;28;20031;-69
2024/04/02 07:18:02;;;;;;;3.63;0.82;;;;;;;18.55;44.73;100428.81;4993845;28;20041;-70
2024/04/02 07:20:28;;;;;;;2.83;0.70;;;;;;;18.56;45.07;100422.53;4993777;28;20372;-68
2024/04/02 07:22:53;;;;;;;3.30;0.85;;;;;;;18.60;44.89;100438.94;4993115;28;20034;-69
2024/04/02 07:25:18;;;;;;;3.70;0.93;;;;;;;18.36;45.20;100397.09;4992055;28;20672;-67
2024/04/02 07:27:47;;;;;;;2.85;0.90;;;;;;;18.53;45.17;100420.16;4993032;28;20089;-75
2024/04/02 07:30:12;;;;;;;2.92;0.80;;;;;;;18.20;45.12;100385.28;4994475;28;20049;-67
2024/04/02 07:32:39;;;;;;;2.92;1.13;;;;;;;18.62;45.40;100444.91;4993441;28;20484;-68
2024/04/02 07:35:05;;;;;;;4.47;0.93;;;;;;;18.50;45.42;100428.38;4993428;28;20041;-71
2024/04/02 07:37:30;;;;;;;1.73;0.70;;;;;;;18.60;45.32;100446.88;4994254;28;20380;-68
2024/04/02 07:39:55;;;;;;;6.10;1.17;;;;;;;18.45;45.32;100420.03;4991936;28;20037;-69
2024/04/02 07:42:21;;;;;;;3.70;0.90;;;;;;;18.59;45.48;100443.38;4993928;28;20121;-66
2024/04/02 07:44:46;;;;;;;3.50;0.82;;;;;;;18.47;45.63;100420.75;4993144;28;20038;-67
2024/04/02 07:47:12;;;;;;;3.05;0.95;;;;;;;18.64;45.66;100448.25;4993016;28;20034;-68
2024/04/02 07:49:37;;;;;;;2.28;0.80;;;;;;;18.46;45.76;100417.25;4993172;28;20050;-68
2024/04/02 07:52:02;;;;;;;5.00;0.95;;;;;;;18.43;45.70;100420.16;4992735;28;20040;-70
2024/04/02 07:54:28;;;;;;;3.42;1.10;;;;;;;18.48;45.71;100427.66;4991915;28;20038;-67
2024/04/02 07:56:56;;;;;;;3.13;0.88;;;;;;;18.60;45.82;100447.69;4992616;28;20318;-69
2024/04/02 07:59:22;;;;;;;3.10;0.98;;;;;;;18.63;46.01;100460.63;4994133;28;20041;-68
2024/04/02 08:01:47;;;;;;;4.00;1.20;;;;;;;18.63;45.90;100457.16;4989901;28;20863;-67
2024/04/02 08:04:13;;;;;;;3.15;0.98;;;;;;;18.63;45.70;100450.06;4990919;28;20038;-68
2024/04/02 08:06:38;;;;;;;3.97;1.00;;;;;;;18.65;45.98;100465.75;4992714;28;20030;-68
2024/04/02 08:09:03;;;;;;;3.80;1.10;;;;;;;18.49;45.96;100434.63;4992295;28;20030;-67
2024/04/02 08:11:29;;;;;;;3.63;1.08;;;;;;;18.65;46.04;100465.75;4991972;28;20034;-68
2024/04/02 08:13:54;;;;;;;4.28;1.05;;;;;;;18.59;45.82;100455.75;4990799;28;20117;-73
2024/04/02 08:16:22;;;;;;;3.90;1.05;;;;;;;18.55;45.95;100446.41;4991882;28;20388;-68
2024/04/02 08:18:48;;;;;;;4.07;1.17;;;;;;;18.64;46.06;100467.56;4991300;28;20388;-67
2024/04/02 08:21:13;;;;;;;3.17;0.80;;;;;;;18.66;45.75;100465.63;4991564;28;20041;-68
2024/04/02 08:23:38;;;;;;;4.47;1.20;;;;;;;18.64;46.33;100472.84;4991534;28;20034;-69
2024/04/02 08:26:04;;;;;;;3.28;0.82;;;;;;;18.70;45.97;100471.44;4991965;28;20536;-69
2024/04/02 08:28:29;;;;;;;2.78;0.90;;;;;;;18.68;46.18;100473.41;4990303;28;20085;-71
2024/04/02 08:30:54;;;;;;;5.05;1.30;;;;;;;18.61;46.12;100464.34;4989517;28;20116;-66
2024/04/02 08:33:20;;;;;;;5.78;1.35;;;;;;;18.47;46.14;100441.84;4988099;28;20390;-71
2024/04/02 08:35:49;;;;;;;5.18;1.10;;;;;;;18.66;45.95;100483.28;4986885;28;20034;-67
2024/04/02 08:38:15;;;;;;;4.30;1.17;;;;;;;18.69;46.13;100472.41;4988720;28;20042;-69
2024/04/02 08:40:40;;;;;;;4.95;1.08;;;;;;;18.76;46.05;100488.56;4989792;28;20562;-72
2024/04/02 08:43:06;;;;;;;5.13;1.00;;;;;;;18.67;46.01;100483.13;4993588;28;20057;-68
2024/04/02 08:45:32;;;;;;;4.85;1.25;;;;;;;18.62;45.84;100461.56;4990653;28;20034;-68
2024/04/02 08:47:58;;;;;;;3.40;1.02;;;;;;;18.80;46.09;100496.06;4991278;28;20022;-67
2024/04/02 08:50:24;;;;;;;5.38;1.45;;;;;;;18.71;45.99;100475.78;4991720;28;20049;-68
2024/04/02 08:52:51;;;;;;;8.90;1.30;;;;;;;18.77;45.75;100477.00;4991384;28;20113;-69
2024/04/02 08:55:19;;;;;;;4.75;1.38;;;;;;;18.71;45.99;100477.56;4991764;28;20042;-67
2024/04/02 08:57:47;;;;;;;7.35;1.40;;;;;;;18.83;45.96;100500.22;4990525;28;20101;-69
2024/04/02 09:00:13;;;;;;;3.88;0.88;;;;;;;18.85;45.96;100500.97;4990246;28;20034;-68
2024/04/02 09:02:39;;;;;;;4.18;1.10;;;;;;;18.72;45.81;100477.41;4990377;28;20057;-67
2024/04/02 09:05:04;;;;;;;7.15;1.20;;;;;;;18.75;45.86;100476.31;4990555;28;20251;-68
2024/04/02 09:07:30;;;;;;;4.85;1.13;;;;;;;18.84;46.17;100494.00;4991348;28;20109;-78
2024/04/02 09:09:55;;;;;;;3.78;1.00;;;;;;;18.83;45.94;100502.88;4989580;28;20034;-71
2024/04/02 09:12:20;;;;;;;6.00;1.07;;;;;;;18.85;46.27;100504.44;4991447;28;20040;-73
2024/04/02 09:14:46;;;;;;;3.45;0.93;;;;;;;18.80;46.23;100487.28;4990893;28;20287;-70
2024/04/02 09:17:12;;;;;;;6.53;1.15;;;;;;;18.81;46.04;100495.06;4983275;28;20096;-73
2024/04/02 09:19:37;;;;;;;5.30;1.15;;;;;;;18.83;45.99;100487.03;4991922;28;20038;-68
2024/04/02 09:22:03;;;;;;;4.78;1.52;;;;;;;18.85;46.08;100487.78;4996603;28;20033;-74
2024/04/02 09:24:29;;;;;;;3.13;0.90;;;;;;;18.94;46.07;100510.69;4987463;28;20407;-72
2024/04/02 09:26:54;;;;;;;5.30;1.23;;;;;;;18.82;45.85;100486.19;4988666;28;20073;-74
2024/04/02 09:29:19;;;;;;;5.85;1.23;;;;;;;18.78;46.17;100470.75;4990005;28;20050;-73
2024/04/02 09:31:45;;;;;;;7.05;1.42;;;;;;;18.87;45.84;100500.81;4987053;28;20986;-72
2024/04/02 09:34:14;;;;;;;4.47;1.10;;;;;;;18.93;45.85;100518.75;4988570;28;20029;-75
2024/04/02 09:36:40;;;;;;;3.70;1.00;;;;;;;18.98;45.80;100542.97;4983354;28;20467;-70
2024/04/02 09:39:11;;;;;;;3.90;1.05;;;;;;;18.70;46.03;100489.09;4989795;28;20496;-77
2024/04/02 09:41:44;;;;;;;3.65;1.10;;;;;;;18.84;45.75;100528.34;4988028;28;20042;-70
2024/04/02 09:44:19;;;;;;;3.55;1.00;;;;;;;18.88;46.11;100528.88;4988337;28;20034;-72
2024/04/02 09:46:45;;;;;;;3.33;1.15;;;;;;;18.88;46.11;100534.16;4988507;28;20050;-71
2024/04/02 09:49:11;;;;;;;4.93;0.90;;;;;;;18.93;46.36;100537.22;4990595;28;20050;-75
2024/04/02 09:51:39;;;;;;;3.67;0.95;;;;;;;18.99;46.17;100541.97;4991169;28;20057;-73
2024/04/02 09:54:05;;;;;;;5.38;1.30;;;;;;;18.90;46.13;100532.22;4989403;28;20760;-73
2024/04/02 09:56:32;;;;;;;3.35;1.05;;;;;;;18.92;46.03;100532.94;4989976;28;20101;-71
2024/04/02 09:59:02;;;;;;;5.00;0.90;;;;;;;18.97;46.27;100536.81;4991379;28;20128;-69
2024/04/02 10:01:31;;;;;;;4.82;0.80;;;;;;;19.00;46.02;100548.91;4987015;28;20030;-77
2024/04/02 10:04:01;;;;;;;5.38;1.02;;;;;;;19.08;46.21;100558.81;4989507;28;20459;-75
2024/04/02 10:06:27;;;;;;;3.70;1.05;;;;;;;18.99;46.14;100544.59;4982138;28;20037;-74
2024/04/02 10:09:18;;;;;;;7.53;1.00;;;;;;;19.02;46.12;100539.88;4986977;28;20030;-74
2024/04/02 10:11:48;;;;;;;4.35;0.90;;;;;;;18.95;46.19;100536.13;4988966;28;20097;-72
2024/04/02 10:14:15;;;;;;;3.58;1.02;;;;;;;19.07;46.00;100552.66;4987774;28;20508;-72
2024/04/02 10:16:45;;;;;;;3.25;0.93;;;;;;;18.89;46.25;100528.75;4989326;28;20038;-72
2024/04/02 10:19:12;;;;;;;5.15;1.00;;;;;;;19.03;46.41;100546.00;4986293;28;20068;-71
2024/04/02 10:21:39;;;;;;;3.50;0.80;;;;;;;18.93;46.57;100530.16;4985077;28;20044;-73
2024/04/02 10:24:05;;;;;;;2.38;0.80;;;;;;;18.96;46.46;100539.59;4988466;28;20192;-72
2024/04/02 10:26:31;;;;;;;5.32;0.93;;;;;;;19.06;46.40;100551.03;4988218;28;20483;-73
2024/04/02 10:28:57;;;;;;;4.20;1.38;;;;;;;19.00;46.47;100551.56;4988596;28;20500;-78
2024/04/02 10:31:34;;;;;;;3.92;0.80;;;;;;;19.11;46.39;100569.91;4989436;28;20038;-76
2024/04/02 10:33:59;;;;;;;4.20;0.90;;;;;;;18.94;46.48;100545.00;4989350;28;20038;-73
2024/04/02 10:36:25;;;;;;;3.33;0.80;;;;;;;19.07;46.15;100571.16;4989438;28;20337;-69
2024/04/02 10:38:50;;;;;;;3.83;1.00;;;;;;;19.06;46.54;100564.22;4987641;28;20030;-73
2024/04/02 10:41:16;;;;;;;2.90;0.93;;;;;;;19.00;46.53;100556.84;4988985;28;20042;-72
2024/04/02 10:43:43;;;;;;;8.13;1.17;;;;;;;19.08;46.62;100556.16;4987415;28;20464;-74
2024/04/02 10:46:08;;;;;;;4.40;0.95;;;;;;;19.11;46.29;100571.75;4985779;28;20037;-72
2024/04/02 10:48:35;;;;;;;3.28;1.00;;;;;;;19.00;46.20;100557.66;4985718;28;20061;-73
2024/04/02 10:51:00;;;;;;;4.95;0.90;;;;;;;19.12;46.36;100574.25;4986404;28;20121;-69
2024/04/02 10:53:26;;;;;;;3.45;0.93;;;;;;;19.10;46.39;100570.06;4986600;28;20132;-71
2024/04/02 10:55:52;;;;;;;3.13;0.98;;;;;;;19.06;46.30;100576.56;4977950;28;20026;-69
2024/04/02 10:58:18;;;;;;;4.13;0.98;;;;;;;19.06;46.20;100571.28;4985092;28;20038;-69
2024/04/02 11:00:44;;;;;;;3.95;0.98;;;;;;;18.93;46.30;100550.44;4978171;28;20035;-71
2024/04/02 11:03:10;;;;;;;5.40;0.93;;;;;;;19.01;46.35;100571.72;4985524;28;20030;-73
2024/04/02 11:05:35;;;;;;;4.03;1.00;;;;;;;18.99;46.26;100565.72;4986216;28;20038;-70
2024/04/02 11:08:01;;;;;;;2.88;0.85;;;;;;;18.97;46.34;100565.88;4985909;28;20172;-70
2024/04/02 11:10:26;;;;;;;2.83;0.80;;;;;;;18.98;46.64;100570.19;4984103;28;20030;-70
2024/04/02 11:12:51;;;;;;;2.65;0.90;;;;;;;18.88;46.64;100542.91;4982826;28;20038;-72
2024/04/02 11:15:21;;;;;;;3.78;1.08;;;;;;;18.94;47.12;100565.31;4985532;28;20090;-71
2024/04/02 11:17:46;;;;;;;4.05;1.00;;;;;;;18.73;46.84;100534.53;4983898;28;20040;-72